Time;durP1;ratioP1;P1;durP2;ratioP2;P2;SDS_P1;SDS_P2;PMS_P1;PMS_P2;Temp;Humidity;BMP_temperature;BMP_pressure;BME280_temperature;BME280_humidity;BME280_pressure;Samples;Min_cycle;Max_cycle;Signal;HPM_P1;HPM_P2
2023/07/28 00:00:30;;;;;;;1.08;1.00;;;17.80;99.90;;;;;;5088941;28;20214;-72
2023/07/28 00:02:57;;;;;;;1.75;0.88;;;17.80;99.90;;;;;;5069304;28;20214;-70
2023/07/28 00:05:24;;;;;;;1.10;1.00;;;17.40;99.90;;;;;;5093550;28;20200;-70
2023/07/28 00:07:52;;;;;;;3.55;1.40;;;17.80;99.90;;;;;;5095013;28;20195;-70
2023/07/28 00:10:19;;;;;;;1.02;1.00;;;17.90;99.90;;;;;;5089528;28;20200;-70
2023/07/28 00:12:46;;;;;;;1.30;1.10;;;17.90;99.90;;;;;;5095862;28;20195;-70
2023/07/28 00:15:12;;;;;;;1.20;1.10;;;17.80;99.90;;;;;;5087550;28;20287;-70
2023/07/28 00:17:42;;;;;;;1.27;1.17;;;17.90;99.90;;;;;;5073567;28;20204;-70
2023/07/28 00:20:10;;;;;;;1.33;1.00;;;17.80;99.90;;;;;;5090261;28;20223;-70
2023/07/28 00:22:37;;;;;;;0.77;0.77;;;17.90;99.90;;;;;;5093661;28;20204;-70
2023/07/28 00:25:04;;;;;;;1.00;0.93;;;17.80;99.90;;;;;;5093408;28;20203;-71
2023/07/28 00:27:31;;;;;;;1.30;1.20;;;17.80;99.90;;;;;;5093640;28;20215;-70
2023/07/28 00:29:57;;;;;;;1.27;1.10;;;17.80;99.90;;;;;;5094474;28;20240;-70
2023/07/28 00:32:24;;;;;;;1.10;1.00;;;17.80;99.90;;;;;;5073035;28;20204;-70
2023/07/28 00:34:52;;;;;;;1.30;1.20;;;17.80;99.90;;;;;;5093705;28;20195;-70
2023/07/28 00:37:20;;;;;;;3.50;1.63;;;17.90;99.90;;;;;;5089418;28;20191;-70
2023/07/28 00:39:47;;;;;;;3.55;1.92;;;17.90;99.90;;;;;;5091970;28;20277;-70
2023/07/28 00:42:13;;;;;;;3.15;1.70;;;17.80;99.90;;;;;;5089140;28;20202;-70
2023/07/28 00:44:40;;;;;;;1.85;1.60;;;17.90;99.90;;;;;;5094104;28;20199;-70
2023/07/28 00:47:07;;;;;;;3.38;1.67;;;17.80;99.90;;;;;;5088370;28;20203;-70
2023/07/28 00:49:34;;;;;;;2.53;1.95;;;17.90;99.90;;;;;;5072858;28;20203;-70
2023/07/28 00:52:03;;;;;;;2.17;1.80;;;17.80;99.90;;;;;;5090478;28;20200;-70
2023/07/28 00:54:30;;;;;;;2.55;2.20;;;17.80;99.90;;;;;;5091636;28;20210;-70
2023/07/28 00:56:57;;;;;;;2.38;2.00;;;17.90;99.90;;;;;;5092931;28;20203;-70
2023/07/28 00:59:24;;;;;;;4.22;2.20;;;17.90;99.90;;;;;;5090234;28;20226;-70
2023/07/28 01:01:50;;;;;;;5.05;2.33;;;17.80;99.90;;;;;;5093834;28;20220;-70
2023/07/28 01:04:18;;;;;;;3.92;2.50;;;17.80;99.90;;;;;;5072372;28;20210;-70
2023/07/28 01:06:50;;;;;;;3.15;2.40;;;17.90;99.90;;;;;;5091142;28;20192;-70
2023/07/28 01:09:22;;;;;;;4.00;2.80;;;17.80;99.90;;;;;;5092020;28;20206;-70
2023/07/28 01:11:55;;;;;;;6.97;3.10;;;17.90;99.90;;;;;;5093611;28;20203;-70
2023/07/28 01:14:22;;;;;;;4.03;2.67;;;17.90;99.90;;;;;;5086589;28;20203;-70
2023/07/28 01:16:49;;;;;;;4.57;2.70;;;17.80;99.90;;;;;;5094468;28;20202;-70
2023/07/28 01:19:18;;;;;;;6.82;2.75;;;17.80;99.90;;;;;;5067503;28;20212;-70
2023/07/28 01:21:48;;;;;;;6.28;2.35;;;17.80;99.90;;;;;;5092856;28;20196;-70
2023/07/28 01:24:21;;;;;;;2.97;2.60;;;17.80;99.90;;;;;;5088821;28;20196;-70
2023/07/28 01:26:50;;;;;;;5.07;2.70;;;17.80;99.90;;;;;;5089574;28;20718;-70
2023/07/28 01:29:19;;;;;;;8.52;2.85;;;17.80;99.90;;;;;;5088986;28;20238;-71
2023/07/28 01:31:47;;;;;;;9.75;2.67;;;17.80;99.90;;;;;;5091150;28;20211;-70
2023/07/28 01:34:14;;;;;;;4.72;3.00;;;17.80;99.90;;;;;;5070834;28;20518;-71
2023/07/28 01:36:42;;;;;;;4.47;2.92;;;17.80;99.90;;;;;;5093675;28;20278;-70
2023/07/28 01:39:08;;;;;;;6.65;2.55;;;17.80;99.90;;;;;;5089594;28;20223;-70
2023/07/28 01:41:36;;;;;;;6.13;2.72;;;17.80;99.90;;;;;;5093225;28;20200;-70
2023/07/28 01:44:04;;;;;;;3.30;2.50;;;17.80;99.90;;;;;;5090786;28;20219;-71
2023/07/28 01:46:31;;;;;;;4.65;2.63;;;17.80;99.90;;;;;;5089309;28;20198;-70
2023/07/28 01:48:58;;;;;;;2.83;2.33;;;17.90;99.90;;;;;;5067013;28;20203;-71
2023/07/28 01:51:25;;;;;;;4.22;2.80;;;17.70;99.90;;;;;;5090420;28;20199;-70
2023/07/28 01:53:51;;;;;;;4.75;2.55;;;17.80;99.90;;;;;;5093512;28;20203;-70
2023/07/28 01:56:18;;;;;;;4.63;2.90;;;17.80;99.90;;;;;;5091940;28;20579;-70
2023/07/28 01:58:45;;;;;;;4.85;3.33;;;17.70;99.90;;;;;;5090785;28;20202;-70
2023/07/28 02:01:15;;;;;;;3.60;2.83;;;17.70;99.90;;;;;;5089815;27;21182;-70
2023/07/28 02:03:41;;;;;;;4.47;2.95;;;17.70;99.90;;;;;;5089794;28;20191;-70
2023/07/28 02:06:08;;;;;;;5.88;3.22;;;17.70;99.90;;;;;;5069117;28;20217;-70
2023/07/28 02:08:35;;;;;;;5.03;3.30;;;17.70;99.90;;;;;;5088535;28;20679;-70
2023/07/28 02:11:02;;;;;;;5.65;3.28;;;;;;;;;;5087945;28;20907;-70
2023/07/28 02:13:29;;;;;;;4.57;3.72;;;17.80;99.90;;;;;;5092543;28;20196;-70
2023/07/28 02:15:56;;;;;;;8.15;3.25;;;17.80;99.90;;;;;;5089798;28;20204;-71
2023/07/28 02:18:24;;;;;;;4.10;3.60;;;17.70;99.90;;;;;;5086603;28;20211;-70
2023/07/28 02:20:51;;;;;;;5.13;3.28;;;17.70;99.90;;;;;;5069921;28;20227;-70
2023/07/28 02:23:18;;;;;;;5.22;3.88;;;17.90;99.90;;;;;;5090043;28;20199;-70
2023/07/28 02:25:45;;;;;;;8.80;4.05;;;17.80;99.90;;;;;;5088586;28;20207;-71
2023/07/28 02:28:12;;;;;;;5.95;3.20;;;17.80;99.90;;;;;;5090029;28;20227;-71
2023/07/28 02:30:39;;;;;;;6.88;3.70;;;17.80;99.90;;;;;;5090064;28;20238;-71
2023/07/28 02:33:06;;;;;;;4.88;3.88;;;17.80;99.90;;;;;;5090718;28;20564;-71
2023/07/28 02:35:34;;;;;;;4.97;3.60;;;17.80;99.90;;;;;;5072541;28;20322;-71
2023/07/28 02:38:02;;;;;;;6.22;3.33;;;;;;;;;;5090765;28;20195;-71
2023/07/28 02:40:28;;;;;;;5.00;3.80;;;17.80;99.90;;;;;;5087379;28;21160;-70
2023/07/28 02:42:56;;;;;;;5.97;4.25;;;17.80;99.90;;;;;;5089840;28;20207;-70
2023/07/28 02:45:24;;;;;;;7.78;4.88;;;17.80;99.90;;;;;;5092078;28;20652;-71
2023/07/28 02:47:51;;;;;;;8.35;4.70;;;17.80;99.90;;;;;;5091102;28;20196;-70
2023/07/28 02:50:18;;;;;;;6.03;4.30;;;17.90;99.90;;;;;;5068228;28;20231;-70
2023/07/28 02:52:46;;;;;;;6.70;4.40;;;17.80;99.90;;;;;;5090692;28;20203;-70
2023/07/28 02:55:12;;;;;;;8.02;5.22;;;17.80;99.90;;;;;;5089754;28;20206;-70
2023/07/28 02:57:39;;;;;;;13.93;4.80;;;17.80;99.90;;;;;;5090480;28;20195;-70
2023/07/28 03:00:10;;;;;;;6.93;4.72;;;17.80;99.90;;;;;;5086501;28;20215;-71
2023/07/28 03:02:37;;;;;;;8.73;4.20;;;17.80;99.90;;;;;;5088911;28;20291;-70
2023/07/28 03:05:04;;;;;;;9.80;5.32;;;17.80;99.90;;;;;;5091759;28;20196;-70
2023/07/28 03:07:31;;;;;;;7.65;5.50;;;17.80;99.90;;;;;;5072522;28;20229;-70
2023/07/28 03:09:59;;;;;;;9.82;5.65;;;17.80;99.90;;;;;;5086429;28;21573;-70
2023/07/28 03:12:26;;;;;;;7.68;4.88;;;17.80;99.90;;;;;;5088455;28;20225;-71
2023/07/28 03:14:53;;;;;;;10.20;5.30;;;17.80;99.90;;;;;;5088109;28;20206;-70
2023/07/28 03:17:19;;;;;;;8.30;4.70;;;17.80;99.90;;;;;;5086702;28;20192;-70
2023/07/28 03:19:46;;;;;;;7.28;5.10;;;17.80;99.90;;;;;;5094074;28;20227;-71
2023/07/28 03:22:13;;;;;;;15.82;5.85;;;17.80;99.90;;;;;;5071293;28;20207;-71
2023/07/28 03:24:41;;;;;;;10.65;5.35;;;17.80;99.90;;;;;;5095196;28;20196;-71
2023/07/28 03:27:09;;;;;;;8.32;5.03;;;17.80;99.90;;;;;;5090554;28;20212;-70
2023/07/28 03:29:36;;;;;;;10.00;5.45;;;17.80;99.90;;;;;;5092796;28;20618;-70
2023/07/28 03:32:03;;;;;;;9.38;5.72;;;17.80;99.90;;;;;;5092148;28;20222;-71
2023/07/28 03:34:30;;;;;;;8.23;5.45;;;17.80;99.90;;;;;;5089788;28;20220;-71
2023/07/28 03:36:57;;;;;;;7.70;5.25;;;;;;;;;;5093219;28;20744;-71
2023/07/28 03:39:23;;;;;;;8.70;5.03;;;17.80;99.90;;;;;;5072933;28;20210;-70
2023/07/28 03:41:50;;;;;;;6.63;4.60;;;17.70;99.90;;;;;;5094374;28;20203;-70
2023/07/28 03:44:19;;;;;;;8.13;5.03;;;17.70;99.90;;;;;;5087867;28;20201;-70
2023/07/28 03:46:46;;;;;;;7.28;4.85;;;17.70;99.90;;;;;;5090300;28;21226;-70
2023/07/28 03:49:13;;;;;;;7.55;4.35;;;18.40;99.90;;;;;;5092114;28;20564;-71
2023/07/28 03:51:40;;;;;;;5.43;4.22;;;17.70;99.90;;;;;;5093919;28;20199;-71
2023/07/28 03:54:07;;;;;;;8.68;4.38;;;17.70;99.90;;;;;;5073247;28;20245;-71
2023/07/28 03:56:33;;;;;;;7.82;4.60;;;17.80;99.90;;;;;;5093057;28;20580;-71
2023/07/28 03:59:00;;;;;;;6.50;4.50;;;17.70;99.90;;;;;;5092840;28;20195;-71
2023/07/28 04:01:28;;;;;;;6.07;4.47;;;17.70;99.90;;;;;;5092416;28;20219;-70
2023/07/28 04:03:55;;;;;;;4.95;3.72;;;17.80;99.90;;;;;;5093416;28;20205;-71
2023/07/28 04:06:40;;;;;;;5.13;3.95;;;17.70;99.90;;;;;;5090916;28;20644;-71
2023/07/28 04:09:07;;;;;;;5.30;3.97;;;18.90;99.90;;;;;;5074820;28;20685;-71
2023/07/28 04:11:34;;;;;;;4.70;3.97;;;17.70;99.90;;;;;;5090807;28;20211;-71
2023/07/28 04:14:01;;;;;;;5.47;3.80;;;17.70;99.90;;;;;;5090421;28;20200;-71
2023/07/28 04:16:29;;;;;;;5.85;3.90;;;17.80;99.90;;;;;;5088585;28;20195;-70
2023/07/28 04:18:56;;;;;;;4.15;3.22;;;17.70;99.90;;;;;;5092534;28;20207;-71
2023/07/28 04:21:23;;;;;;;5.88;3.45;;;17.70;99.90;;;;;;5089628;28;20227;-71
2023/07/28 04:23:50;;;;;;;7.82;3.72;;;17.70;99.90;;;;;;5096321;28;20206;-71
2023/07/28 04:26:17;;;;;;;3.70;2.97;;;17.80;99.90;;;;;;5069405;28;20207;-71
2023/07/28 04:28:44;;;;;;;4.30;3.42;;;17.80;99.90;;;;;;5091509;28;20227;-71
2023/07/28 04:31:11;;;;;;;4.05;3.35;;;17.80;99.90;;;;;;5091346;28;20203;-71
2023/07/28 04:33:41;;;;;;;5.25;3.95;;;17.80;99.90;;;;;;5092840;28;20192;-71
2023/07/28 04:36:08;;;;;;;6.47;3.67;;;17.80;99.90;;;;;;5090720;28;20223;-71
2023/07/28 04:38:35;;;;;;;5.38;3.97;;;17.80;99.90;;;;;;5090186;28;20233;-71
2023/07/28 04:41:02;;;;;;;4.82;3.78;;;17.90;99.90;;;;;;5071946;28;20251;-71
2023/07/28 04:43:29;;;;;;;5.32;3.33;;;17.80;99.90;;;;;;5093131;28;20196;-71
2023/07/28 04:45:56;;;;;;;4.63;3.67;;;17.80;99.90;;;;;;5090731;28;20680;-71
2023/07/28 04:48:23;;;;;;;4.97;3.70;;;17.90;99.90;;;;;;5087208;28;20759;-71
2023/07/28 04:50:51;;;;;;;7.10;4.25;;;17.90;99.90;;;;;;5093313;27;20751;-71
2023/07/28 04:53:18;;;;;;;4.55;3.63;;;17.80;99.90;;;;;;5090135;28;21192;-71
2023/07/28 04:55:44;;;;;;;5.60;3.60;;;18.00;99.90;;;;;;5092495;28;20242;-71
2023/07/28 04:58:11;;;;;;;3.38;3.08;;;18.00;99.90;;;;;;5067490;28;20207;-71
2023/07/28 05:00:38;;;;;;;4.57;3.50;;;17.70;99.90;;;;;;5092174;28;20234;-71
2023/07/28 05:03:05;;;;;;;4.22;3.05;;;18.00;99.90;;;;;;5091792;28;20207;-71
2023/07/28 05:05:32;;;;;;;4.38;3.25;;;18.00;99.90;;;;;;5090931;28;20196;-71
2023/07/28 05:08:00;;;;;;;5.00;2.95;;;17.90;99.90;;;;;;5091252;28;20199;-72
2023/07/28 05:10:26;;;;;;;4.70;3.58;;;18.00;99.90;;;;;;5090643;28;20196;-71
2023/07/28 05:12:53;;;;;;;9.93;3.45;;;18.00;99.90;;;;;;5071168;28;20218;-71
2023/07/28 05:15:20;;;;;;;6.22;4.00;;;18.10;99.90;;;;;;5090161;28;20196;-71
2023/07/28 05:17:47;;;;;;;7.72;3.42;;;18.00;99.90;;;;;;5089623;28;20192;-71
2023/07/28 05:20:13;;;;;;;4.45;3.10;;;18.00;99.90;;;;;;5088052;28;20227;-71
2023/07/28 05:22:40;;;;;;;4.85;3.65;;;18.00;99.90;;;;;;5091971;28;20204;-71
2023/07/28 05:25:09;;;;;;;4.18;3.63;;;17.50;99.90;;;;;;5089286;27;20207;-72
2023/07/28 05:27:36;;;;;;;4.38;3.80;;;17.90;99.90;;;;;;5073671;28;20282;-71
2023/07/28 05:30:02;;;;;;;5.38;3.95;;;18.10;99.90;;;;;;5093426;28;20227;-71
2023/07/28 05:32:29;;;;;;;4.43;3.50;;;18.00;99.90;;;;;;5088199;28;20199;-71
2023/07/28 05:34:56;;;;;;;4.10;3.17;;;18.10;99.90;;;;;;5087229;28;20207;-71
2023/07/28 05:37:23;;;;;;;5.93;3.40;;;18.10;99.90;;;;;;5083953;28;20222;-71
2023/07/28 05:39:50;;;;;;;3.95;3.13;;;18.10;99.90;;;;;;5089025;28;20211;-71
2023/07/28 05:42:18;;;;;;;5.35;3.85;;;14.90;99.90;;;;;;5066085;28;20215;-71
2023/07/28 05:44:45;;;;;;;4.72;3.58;;;18.10;99.90;;;;;;5092827;28;20198;-71
2023/07/28 05:47:11;;;;;;;3.95;2.80;;;18.10;99.90;;;;;;5087958;28;20191;-71
2023/07/28 05:49:38;;;;;;;4.07;3.03;;;18.10;99.90;;;;;;5090109;28;20199;-71
2023/07/28 05:52:05;;;;;;;4.25;3.65;;;18.20;99.90;;;;;;5090926;28;20199;-72
2023/07/28 05:54:32;;;;;;;3.53;3.10;;;18.10;99.90;;;;;;5085792;28;20196;-71
2023/07/28 05:56:59;;;;;;;3.97;2.90;;;17.60;99.90;;;;;;5081979;28;20215;-71
2023/07/28 05:59:27;;;;;;;4.38;3.17;;;18.20;99.90;;;;;;5078895;28;20214;-71
2023/07/28 06:01:54;;;;;;;3.85;3.25;;;18.20;99.90;;;;;;5092552;28;20597;-72
2023/07/28 06:04:21;;;;;;;5.78;3.47;;;18.20;99.90;;;;;;5091007;28;20210;-71
2023/07/28 06:06:48;;;;;;;5.57;3.33;;;18.20;99.90;;;;;;5089964;28;20203;-71
2023/07/28 06:09:15;;;;;;;4.00;2.92;;;18.20;99.90;;;;;;5092204;28;21009;-71
2023/07/28 06:11:42;;;;;;;5.38;3.30;;;18.20;99.90;;;;;;5093231;28;20199;-71
2023/07/28 06:14:08;;;;;;;3.80;2.78;;;18.30;99.90;;;;;;5070009;28;20206;-71
2023/07/28 06:16:36;;;;;;;3.97;2.40;;;18.20;99.90;;;;;;5087422;28;20695;-71
2023/07/28 06:19:04;;;;;;;5.22;3.40;;;18.30;99.90;;;;;;5086908;28;20196;-71
2023/07/28 06:21:30;;;;;;;3.75;2.97;;;18.30;99.90;;;;;;5091041;28;20236;-71
2023/07/28 06:23:57;;;;;;;3.80;2.60;;;18.30;99.90;;;;;;5092987;28;20202;-71
2023/07/28 06:26:24;;;;;;;3.15;2.63;;;18.20;99.90;;;;;;5088603;28;20201;-71
2023/07/28 06:28:51;;;;;;;2.85;2.55;;;18.20;99.90;;;;;;5071481;28;20234;-71
2023/07/28 06:31:18;;;;;;;3.17;2.50;;;18.30;99.90;;;;;;5088589;28;20203;-71
2023/07/28 06:33:47;;;;;;;4.50;2.80;;;18.40;99.90;;;;;;5092301;28;20199;-71
2023/07/28 06:36:14;;;;;;;4.20;3.30;;;18.60;99.90;;;;;;5086806;28;20210;-71
2023/07/28 06:38:43;;;;;;;3.22;2.60;;;18.30;99.90;;;;;;5090873;28;20203;-71
2023/07/28 06:41:10;;;;;;;3.83;2.80;;;18.30;99.90;;;;;;5085848;28;20794;-72
2023/07/28 06:43:37;;;;;;;3.72;2.72;;;18.30;99.90;;;;;;5071808;28;20218;-71
2023/07/28 06:46:04;;;;;;;2.97;2.55;;;18.30;99.90;;;;;;5090205;28;20257;-71
2023/07/28 06:48:31;;;;;;;3.40;2.80;;;18.30;99.90;;;;;;5088215;28;20228;-71
2023/07/28 06:50:59;;;;;;;3.38;2.55;;;18.20;99.90;;;;;;5086777;28;20204;-72
2023/07/28 06:53:25;;;;;;;4.20;2.78;;;18.10;99.90;;;;;;5088183;28;20202;-72
2023/07/28 06:55:53;;;;;;;3.65;2.47;;;;;;;;;;5096506;28;20196;-71
2023/07/28 06:58:19;;;;;;;5.90;3.15;;;18.20;99.90;;;;;;5091979;28;20940;-71
2023/07/28 07:00:46;;;;;;;3.47;2.85;;;18.20;99.90;;;;;;5076928;28;20223;-71
2023/07/28 07:03:13;;;;;;;3.05;2.70;;;17.30;99.90;;;;;;5089923;28;20206;-71
2023/07/28 07:05:40;;;;;;;4.85;2.60;;;18.20;99.90;;;;;;5096378;28;20199;-71
2023/07/28 07:08:08;;;;;;;4.55;2.60;;;18.20;99.90;;;;;;5090230;28;20563;-71
2023/07/28 07:10:35;;;;;;;3.90;2.70;;;18.20;99.90;;;;;;5092493;28;20652;-71
2023/07/28 07:13:02;;;;;;;3.33;2.50;;;18.20;99.90;;;;;;5094322;28;20585;-72
2023/07/28 07:15:29;;;;;;;2.70;2.00;;;18.20;99.90;;;;;;5072803;28;20727;-72
2023/07/28 07:17:55;;;;;;;4.20;2.63;;;18.20;99.90;;;;;;5092393;28;20287;-71
2023/07/28 07:20:23;;;;;;;2.60;1.95;;;18.20;99.90;;;;;;5092107;28;20199;-71
2023/07/28 07:22:49;;;;;;;2.85;2.45;;;18.10;99.90;;;;;;5091867;28;20199;-71
2023/07/28 07:25:18;;;;;;;4.88;2.10;;;18.20;99.90;;;;;;5084963;28;20215;-71
2023/07/28 07:27:45;;;;;;;2.78;2.03;;;18.30;99.90;;;;;;5094980;28;20195;-71
2023/07/28 07:30:12;;;;;;;2.50;2.10;;;18.20;99.90;;;;;;5072132;28;20211;-71
2023/07/28 07:32:39;;;;;;;4.65;1.83;;;18.10;99.90;;;;;;5096224;28;20219;-70
2023/07/28 07:35:08;;;;;;;3.22;2.03;;;18.20;99.90;;;;;;5093495;28;20199;-70
2023/07/28 07:37:35;;;;;;;2.40;1.52;;;18.20;99.90;;;;;;5092489;28;20235;-71
2023/07/28 07:40:02;;;;;;;1.80;1.65;;;18.30;99.90;;;;;;5094223;28;20219;-71
2023/07/28 07:42:43;;;;;;;3.60;1.42;;;18.20;99.90;;;;;;5093159;28;20227;-71
2023/07/28 07:45:11;;;;;;;1.95;1.55;;;18.30;99.90;;;;;;5070243;28;20972;-72
2023/07/28 07:47:38;;;;;;;1.70;1.55;;;18.30;99.90;;;;;;5089152;28;20310;-71
2023/07/28 07:50:06;;;;;;;1.63;1.50;;;18.40;99.90;;;;;;5089948;28;20338;-71
2023/07/28 07:52:33;;;;;;;2.15;1.33;;;18.30;99.90;;;;;;5086404;28;20227;-71
2023/07/28 07:55:00;;;;;;;1.25;1.10;;;18.30;99.90;;;;;;5088009;28;20227;-72
2023/07/28 07:57:27;;;;;;;2.05;1.50;;;18.30;99.90;;;;;;5092717;28;20234;-71
2023/07/28 07:59:55;;;;;;;2.60;1.50;;;18.30;99.90;;;;;;5090264;28;20222;-72
2023/07/28 08:02:22;;;;;;;2.67;1.45;;;18.40;99.90;;;;;;5078239;28;20307;-72
2023/07/28 08:04:49;;;;;;;2.17;1.27;;;18.40;99.90;;;;;;5091031;28;20207;-71
2023/07/28 08:07:16;;;;;;;2.10;1.60;;;18.30;99.90;;;;;;5091823;28;20222;-72
2023/07/28 08:09:42;;;;;;;2.42;1.70;;;18.30;99.90;;;;;;5096910;28;20195;-71
2023/07/28 08:12:10;;;;;;;2.30;1.80;;;18.30;99.90;;;;;;5092375;28;20192;-72
2023/07/28 08:14:37;;;;;;;1.55;1.38;;;18.30;99.90;;;;;;5090782;28;20196;-72
2023/07/28 08:17:06;;;;;;;2.88;1.95;;;18.40;99.90;;;;;;5074216;28;21614;-71
2023/07/28 08:19:33;;;;;;;2.03;1.83;;;18.40;99.90;;;;;;5091426;28;20199;-71
2023/07/28 08:21:59;;;;;;;2.45;1.70;;;19.70;99.90;;;;;;5087380;28;20840;-71
2023/07/28 08:24:26;;;;;;;2.55;2.05;;;18.40;99.90;;;;;;5090550;28;20204;-71
2023/07/28 08:26:53;;;;;;;2.53;1.80;;;18.50;99.90;;;;;;5094969;27;20200;-72
2023/07/28 08:29:20;;;;;;;3.20;1.98;;;18.40;99.90;;;;;;5088562;28;20227;-71
2023/07/28 08:31:46;;;;;;;3.38;2.10;;;18.40;99.90;;;;;;5071026;28;20211;-71
2023/07/28 08:34:15;;;;;;;2.17;1.92;;;18.50;99.90;;;;;;5088124;28;20199;-71
2023/07/28 08:36:42;;;;;;;4.78;2.00;;;18.50;99.90;;;;;;5094636;28;20223;-72
2023/07/28 08:39:09;;;;;;;3.03;2.20;;;18.50;99.90;;;;;;5092205;28;20196;-71
2023/07/28 08:41:36;;;;;;;2.92;2.20;;;18.60;99.90;;;;;;5088926;28;20223;-71
2023/07/28 08:44:04;;;;;;;4.38;2.10;;;18.70;99.90;;;;;;5089675;28;20218;-71
2023/07/28 08:46:34;;;;;;;2.42;1.90;;;18.50;99.90;;;;;;5090424;28;20203;-71
2023/07/28 08:49:00;;;;;;;3.08;2.35;;;18.80;99.90;;;;;;5071530;28;20302;-71
2023/07/28 08:51:29;;;;;;;3.55;2.45;;;18.90;99.90;;;;;;5086623;28;20199;-71
2023/07/28 08:53:55;;;;;;;3.55;2.47;;;18.80;99.90;;;;;;5091684;28;20215;-71
2023/07/28 08:56:26;;;;;;;2.92;2.40;;;18.90;99.90;;;;;;5092150;28;20199;-71
2023/07/28 08:58:59;;;;;;;4.97;2.70;;;18.90;99.90;;;;;;5093229;28;20202;-71
2023/07/28 09:01:25;;;;;;;7.60;3.08;;;18.80;99.90;;;;;;5090964;28;20233;-71
2023/07/28 09:03:52;;;;;;;5.57;3.55;;;18.80;99.90;;;;;;5069525;28;20227;-71
2023/07/28 09:06:19;;;;;;;3.75;3.10;;;18.80;99.90;;;;;;5085836;28;20730;-71
2023/07/28 09:08:48;;;;;;;8.13;3.53;;;18.90;99.90;;;;;;5086487;28;20234;-72
2023/07/28 09:11:14;;;;;;;8.65;3.60;;;19.00;99.90;;;;;;5089362;28;20202;-71
2023/07/28 09:13:42;;;;;;;6.15;3.80;;;19.00;99.90;;;;;;5096214;28;20199;-72
2023/07/28 09:16:18;;;;;;;5.07;3.42;;;19.20;99.90;;;;;;5089205;27;20204;-72
2023/07/28 09:18:45;;;;;;;9.07;3.72;;;19.20;99.90;;;;;;5094182;28;20264;-72
2023/07/28 09:21:17;;;;;;;7.25;3.95;;;19.30;99.90;;;;;;5069021;28;21026;-73
2023/07/28 09:23:44;;;;;;;4.15;3.35;;;19.30;99.90;;;;;;5090042;28;20205;-72
2023/07/28 09:26:13;;;;;;;6.07;4.43;;;19.90;99.90;;;;;;5088161;28;20593;-72
2023/07/28 09:28:40;;;;;;;7.20;3.70;;;19.60;99.90;;;;;;5094823;28;20232;-71
2023/07/28 09:31:07;;;;;;;3.67;2.47;;;19.50;99.90;;;;;;5089816;28;20200;-71
2023/07/28 09:33:35;;;;;;;2.15;1.77;;;19.40;99.90;;;;;;5091625;28;20200;-71
2023/07/28 09:36:09;;;;;;;2.42;1.67;;;19.20;99.90;;;;;;5074185;27;20207;-71
2023/07/28 09:38:38;;;;;;;4.45;2.00;;;19.10;99.90;;;;;;5092986;28;20187;-71
2023/07/28 09:41:07;;;;;;;2.03;1.70;;;19.20;99.90;;;;;;5090810;28;20609;-71
2023/07/28 09:43:36;;;;;;;3.13;1.63;;;19.20;99.90;;;;;;5094988;28;20196;-71
2023/07/28 09:46:06;;;;;;;2.03;1.40;;;19.10;99.90;;;;;;5089086;28;20196;-72
2023/07/28 09:48:34;;;;;;;1.45;1.35;;;19.00;99.90;;;;;;5092021;28;20259;-72
2023/07/28 09:51:05;;;;;;;1.20;1.10;;;19.00;99.90;;;;;;5067182;28;20208;-72
2023/07/28 09:53:36;;;;;;;2.22;1.27;;;18.90;99.90;;;;;;5092223;28;20735;-71
2023/07/28 09:56:03;;;;;;;3.50;1.70;;;18.90;99.90;;;;;;5091915;28;20684;-71
2023/07/28 09:58:34;;;;;;;2.13;1.92;;;18.90;99.90;;;;;;5087215;28;20197;-71
2023/07/28 10:01:05;;;;;;;3.05;2.22;;;18.90;99.90;;;;;;5088633;28;20207;-71
2023/07/28 10:03:33;;;;;;;2.25;2.03;;;18.90;99.90;;;;;;5089603;28;20231;-71
2023/07/28 10:06:01;;;;;;;3.47;2.60;;;18.60;99.90;;;;;;5070969;28;20802;-72
2023/07/28 10:08:28;;;;;;;4.25;3.08;;;19.10;99.90;;;;;;5091538;28;20218;-71
2023/07/28 10:10:56;;;;;;;4.22;2.92;;;19.10;99.90;;;;;;5087742;28;20645;-71
2023/07/28 10:13:23;;;;;;;5.80;3.63;;;19.10;99.90;;;;;;5088754;28;20212;-71
2023/07/28 10:15:51;;;;;;;5.93;3.58;;;19.10;99.90;;;;;;5094602;28;20635;-71
2023/07/28 10:18:22;;;;;;;4.63;3.20;;;19.30;99.90;;;;;;5086333;28;20196;-71
2023/07/28 10:20:49;;;;;;;6.05;3.63;;;19.20;99.90;;;;;;5089592;28;20210;-72
2023/07/28 10:23:17;;;;;;;7.43;4.10;;;19.30;99.90;;;;;;5071378;28;20272;-71
2023/07/28 10:25:45;;;;;;;5.85;3.90;;;19.30;99.90;;;;;;5085962;28;20196;-72
2023/07/28 10:28:31;;;;;;;5.45;4.18;;;19.40;99.90;;;;;;5091702;28;20227;-71
2023/07/28 10:30:59;;;;;;;7.70;4.63;;;19.70;99.90;;;;;;5094896;28;20199;-71
2023/07/28 10:33:35;;;;;;;8.05;4.75;;;20.00;99.90;;;;;;5093540;28;20675;-71
2023/07/28 10:36:13;;;;;;;5.13;4.15;;;19.30;99.90;;;;;;5093918;28;20579;-72
2023/07/28 10:38:40;;;;;;;7.35;4.25;;;20.20;99.90;;;;;;5073965;28;20199;-71
2023/07/28 10:41:14;;;;;;;6.32;4.93;;;20.10;99.90;;;;;;5097139;28;20191;-71
2023/07/28 10:43:42;;;;;;;8.05;4.28;;;20.00;99.90;;;;;;5095236;28;20255;-71
2023/07/28 10:46:11;;;;;;;3.63;3.22;;;20.10;99.90;;;;;;5094166;28;20214;-71
2023/07/28 10:48:43;;;;;;;3.42;3.13;;;20.10;99.90;;;;;;5094988;28;20310;-71
2023/07/28 10:51:11;;;;;;;4.72;2.75;;;20.10;99.90;;;;;;5089127;28;20198;-71
2023/07/28 10:53:38;;;;;;;3.63;3.25;;;20.10;99.90;;;;;;5074749;28;20207;-71
2023/07/28 10:56:08;;;;;;;3.40;2.70;;;19.80;99.90;;;;;;5096877;28;20246;-72
2023/07/28 10:58:36;;;;;;;3.28;2.50;;;20.10;99.90;;;;;;5095379;28;20236;-71
2023/07/28 11:01:03;;;;;;;2.92;2.50;;;20.20;99.90;;;;;;5093388;28;20203;-72
2023/07/28 11:03:30;;;;;;;4.55;2.80;;;20.10;99.90;;;;;;5094326;28;20326;-71
2023/07/28 11:05:58;;;;;;;4.43;2.90;;;20.10;99.90;;;;;;5099819;27;20198;-71
2023/07/28 11:08:26;;;;;;;3.17;2.88;;;20.00;99.90;;;;;;5072592;28;20204;-71
2023/07/28 11:10:53;;;;;;;3.65;3.20;;;20.10;99.90;;;;;;5093104;28;20207;-71
2023/07/28 11:13:19;;;;;;;4.20;3.08;;;20.10;99.90;;;;;;5092107;28;20223;-71
2023/07/28 11:15:46;;;;;;;4.50;3.20;;;20.10;99.90;;;;;;5095365;28;20212;-71
2023/07/28 11:18:16;;;;;;;4.25;3.17;;;20.10;99.90;;;;;;5089842;28;20212;-71
2023/07/28 11:20:44;;;;;;;4.18;3.10;;;20.10;99.90;;;;;;5092387;28;20220;-71
2023/07/28 11:23:15;;;;;;;5.70;3.30;;;20.10;99.90;;;;;;5089686;28;20346;-70
2023/07/28 11:25:44;;;;;;;4.45;3.35;;;20.20;99.90;;;;;;5075492;28;20219;-71
2023/07/28 11:28:11;;;;;;;6.85;3.97;;;20.10;99.90;;;;;;5088427;27;20230;-71
2023/07/28 11:30:38;;;;;;;4.95;3.60;;;20.60;99.90;;;;;;5093830;28;20608;-70
2023/07/28 11:33:09;;;;;;;3.67;3.38;;;20.20;99.90;;;;;;5091650;28;20768;-71
2023/07/28 11:35:35;;;;;;;3.92;3.53;;;20.30;99.90;;;;;;5091700;28;20219;-70
2023/07/28 11:38:03;;;;;;;3.83;3.13;;;20.30;99.90;;;;;;5084282;28;20224;-71
2023/07/28 11:40:31;;;;;;;5.93;3.17;;;20.20;99.90;;;;;;5068136;28;20220;-71
2023/07/28 11:42:58;;;;;;;4.05;3.30;;;20.30;99.90;;;;;;5092820;28;20228;-70
2023/07/28 11:45:25;;;;;;;4.45;3.50;;;19.90;99.90;;;;;;5090786;28;21489;-70
2023/07/28 11:47:56;;;;;;;5.38;3.05;;;20.30;99.90;;;;;;5097459;28;20202;-70
2023/07/28 11:50:24;;;;;;;3.83;2.95;;;20.30;99.90;;;;;;5090161;28;20249;-70
2023/07/28 11:52:51;;;;;;;4.45;3.10;;;20.30;99.90;;;;;;5092676;28;20206;-70
2023/07/28 11:55:20;;;;;;;7.13;3.33;;;20.40;99.90;;;;;;5070175;28;20207;-70
2023/07/28 11:57:49;;;;;;;3.35;3.05;;;20.40;99.90;;;;;;5092961;28;20617;-70
2023/07/28 12:00:17;;;;;;;6.03;3.28;;;20.40;99.90;;;;;;5089126;28;20201;-71
2023/07/28 12:02:46;;;;;;;4.38;3.28;;;20.40;99.90;;;;;;5094171;28;20318;-70
2023/07/28 12:05:14;;;;;;;3.85;3.00;;;20.50;99.90;;;;;;5089803;28;20696;-70
2023/07/28 12:07:41;;;;;;;7.88;3.03;;;20.50;99.90;;;;;;5095730;28;20256;-70
2023/07/28 12:10:09;;;;;;;5.65;2.95;;;20.50;99.90;;;;;;5092429;28;20955;-70
2023/07/28 12:12:43;;;;;;;3.65;2.70;;;20.60;99.90;;;;;;5072081;27;20211;-70
2023/07/28 12:15:28;;;;;;;3.33;2.42;;;20.60;99.90;;;;;;5086932;27;20199;-70
2023/07/28 12:18:06;;;;;;;3.75;3.00;;;20.60;99.90;;;;;;5093018;28;20207;-70
2023/07/28 12:20:38;;;;;;;4.43;2.88;;;20.50;99.90;;;;;;5094714;28;20200;-70
2023/07/28 12:23:05;;;;;;;3.22;2.92;;;20.60;99.90;;;;;;5090899;28;20230;-70
2023/07/28 12:25:32;;;;;;;2.60;2.40;;;20.60;99.90;;;;;;5090511;28;20664;-70
2023/07/28 12:28:00;;;;;;;3.00;2.67;;;21.00;99.90;;;;;;5075153;28;20210;-70
2023/07/28 12:30:28;;;;;;;4.03;2.90;;;21.00;99.90;;;;;;5091571;28;20199;-70
2023/07/28 12:32:55;;;;;;;3.75;2.78;;;21.10;99.90;;;;;;5093801;28;20574;-70
2023/07/28 12:35:23;;;;;;;3.30;2.63;;;21.10;99.90;;;;;;5092999;28;20203;-70
2023/07/28 12:37:50;;;;;;;3.70;2.83;;;21.10;99.90;;;;;;5086269;28;20207;-70
2023/07/28 12:40:17;;;;;;;4.32;2.88;;;21.10;99.90;;;;;;5086435;28;20195;-70
2023/07/28 12:42:44;;;;;;;2.25;2.00;;;21.20;99.90;;;;;;5088323;28;20232;-71
2023/07/28 12:45:11;;;;;;;2.95;2.58;;;21.20;99.90;;;;;;5065507;28;20219;-70
2023/07/28 12:47:40;;;;;;;2.95;2.25;;;21.30;99.90;;;;;;5091010;28;20230;-70
2023/07/28 12:50:07;;;;;;;4.63;2.45;;;21.40;99.90;;;;;;5090458;28;20208;-70